sensor_id;sensor_type;location;lat;lon;timestamp;pressure;altitude;pressure_sealevel;temperature;humidity
48077;BME280;33854;57.708;12.008;2022-11-24T00:00:24;100381.63;;;3.19;100.00
48077;BME280;33854;57.708;12.008;2022-11-24T00:02:49;100431.81;;;3.44;100.00
48077;BME280;33854;57.708;12.008;2022-11-24T00:05:14;100439.50;;;3.45;100.00
48077;BME280;33854;57.708;12.008;2022-11-24T00:07:40;100437.78;;;3.46;100.00
48077;BME280;33854;57.708;12.008;2022-11-24T00:10:06;100415.00;;;3.26;100.00
48077;BME280;33854;57.708;12.008;2022-11-24T00:12:31;100405.56;;;3.25;100.00
48077;BME280;33854;57.708;12.008;2022-11-24T00:14:57;100399.66;;;3.20;100.00
48077;BME280;33854;57.708;12.008;2022-11-24T00:17:22;100443.81;;;3.47;100.00
48077;BME280;33854;57.708;12.008;2022-11-24T00:19:48;100411.47;;;3.30;100.00
48077;BME280;33854;57.708;12.008;2022-11-24T00:22:13;100442.06;;;3.47;100.00
48077;BME280;33854;57.708;12.008;2022-11-24T00:24:39;100440.31;;;3.47;100.00
48077;BME280;33854;57.708;12.008;2022-11-24T00:27:04;100431.91;;;3.39;100.00
48077;BME280;33854;57.708;12.008;2022-11-24T00:29:30;100451.53;;;3.47;100.00
48077;BME280;33854;57.708;12.008;2022-11-24T00:31:56;100407.34;;;3.23;100.00
48077;BME280;33854;57.708;12.008;2022-11-24T00:34:21;100454.94;;;3.49;100.00
48077;BME280;33854;57.708;12.008;2022-11-24T00:36:47;100465.19;;;3.52;100.00
48077;BME280;33854;57.708;12.008;2022-11-24T00:39:14;100461.78;;;3.50;100.00
48077;BME280;33854;57.708;12.008;2022-11-24T00:41:40;100464.25;;;3.54;100.00
48077;BME280;33854;57.708;12.008;2022-11-24T00:44:06;100465.13;;;3.55;100.00
48077;BME280;33854;57.708;12.008;2022-11-24T00:46:32;100436.38;;;3.31;100.00
48077;BME280;33854;57.708;12.008;2022-11-24T00:48:58;100467.69;;;3.55;100.00
48077;BME280;33854;57.708;12.008;2022-11-24T00:51:25;100481.44;;;3.55;100.00
48077;BME280;33854;57.708;12.008;2022-11-24T00:53:59;100442.41;;;3.32;100.00
48077;BME280;33854;57.708;12.008;2022-11-24T00:56:26;100487.47;;;3.56;100.00
48077;BME280;33854;57.708;12.008;2022-11-24T00:58:52;100455.16;;;3.38;100.00
48077;BME280;33854;57.708;12.008;2022-11-24T01:01:25;100478.81;;;3.57;100.00
48077;BME280;33854;57.708;12.008;2022-11-24T01:03:51;100478.03;;;3.55;100.00
48077;BME280;33854;57.708;12.008;2022-11-24T01:06:20;100489.25;;;3.52;100.00
48077;BME280;33854;57.708;12.008;2022-11-24T01:08:46;100480.66;;;3.52;100.00
48077;BME280;33854;57.708;12.008;2022-11-24T01:11:16;100492.72;;;3.51;100.00
48077;BME280;33854;57.708;12.008;2022-11-24T01:13:43;100470.53;;;3.44;100.00
48077;BME280;33854;57.708;12.008;2022-11-24T01:16:14;100478.22;;;3.45;100.00
48077;BME280;33854;57.708;12.008;2022-11-24T01:18:40;100474.94;;;3.37;100.00
48077;BME280;33854;57.708;12.008;2022-11-24T01:21:05;100490.47;;;3.34;100.00
48077;BME280;33854;57.708;12.008;2022-11-24T01:23:31;100443.97;;;2.98;100.00
48077;BME280;33854;57.708;12.008;2022-11-24T01:25:56;100501.78;;;3.27;100.00
48077;BME280;33854;57.708;12.008;2022-11-24T01:28:22;100507.88;;;3.25;100.00
48077;BME280;33854;57.708;12.008;2022-11-24T01:30:59;100518.25;;;3.22;100.00
48077;BME280;33854;57.708;12.008;2022-11-24T01:33:25;100522.56;;;3.21;100.00
48077;BME280;33854;57.708;12.008;2022-11-24T01:35:50;100482.69;;;2.95;100.00
48077;BME280;33854;57.708;12.008;2022-11-24T01:38:16;100531.28;;;3.14;100.00
48077;BME280;33854;57.708;12.008;2022-11-24T01:40:41;100524.63;;;3.03;100.00
48077;BME280;33854;57.708;12.008;2022-11-24T01:43:18;100547.63;;;3.15;100.00
48077;BME280;33854;57.708;12.008;2022-11-24T01:45:44;100529.00;;;2.99;100.00
48077;BME280;33854;57.708;12.008;2022-11-24T01:50:43;100573.34;;;3.16;100.00
48077;BME280;33854;57.708;12.008;2022-11-24T01:53:09;100588.84;;;3.16;100.00
48077;BME280;33854;57.708;12.008;2022-11-24T01:55:38;100588.84;;;3.16;100.00
48077;BME280;33854;57.708;12.008;2022-11-24T01:58:12;100582.09;;;3.09;100.00
48077;BME280;33854;57.708;12.008;2022-11-24T02:00:40;100586.41;;;3.07;100.00
48077;BME280;33854;57.708;12.008;2022-11-24T02:03:09;100596.72;;;3.07;100.00
48077;BME280;33854;57.708;12.008;2022-11-24T02:05:47;100597.56;;;3.08;100.00
48077;BME280;33854;57.708;12.008;2022-11-24T02:08:20;100612.28;;;3.04;100.00
48077;BME280;33854;57.708;12.008;2022-11-24T02:10:50;100615.69;;;3.05;100.00
48077;BME280;33854;57.708;12.008;2022-11-24T02:13:15;100584.28;;;2.81;100.00
48077;BME280;33854;57.708;12.008;2022-11-24T02:15:41;100622.59;;;3.04;100.00
48077;BME280;33854;57.708;12.008;2022-11-24T02:18:07;100632.00;;;3.05;100.00
48077;BME280;33854;57.708;12.008;2022-11-24T02:20:32;100632.91;;;3.04;100.00
48077;BME280;33854;57.708;12.008;2022-11-24T02:28:22;100646.56;;;3.09;100.00
48077;BME280;33854;57.708;12.008;2022-11-24T02:30:49;100647.41;;;3.10;100.00
48077;BME280;33854;57.708;12.008;2022-11-24T02:33:15;100649.03;;;3.14;100.00
48077;BME280;33854;57.708;12.008;2022-11-24T02:35:41;100644.69;;;3.17;100.00
48077;BME280;33854;57.708;12.008;2022-11-24T02:38:10;100641.25;;;3.18;100.00
48077;BME280;33854;57.708;12.008;2022-11-24T02:40:36;100636.97;;;3.17;100.00
48077;BME280;33854;57.708;12.008;2022-11-24T02:43:10;100626.72;;;3.13;100.00
48077;BME280;33854;57.708;12.008;2022-11-24T02:45:36;100624.16;;;3.11;100.00
48077;BME280;33854;57.708;12.008;2022-11-24T02:48:01;100601.22;;;2.98;100.00
48077;BME280;33854;57.708;12.008;2022-11-24T02:50:27;100615.56;;;3.11;100.00
48077;BME280;33854;57.708;12.008;2022-11-24T02:52:52;100624.13;;;3.14;100.00
48077;BME280;33854;57.708;12.008;2022-11-24T02:55:18;100577.34;;;2.86;100.00
48077;BME280;33854;57.708;12.008;2022-11-24T02:57:44;100622.41;;;3.13;100.00
48077;BME280;33854;57.708;12.008;2022-11-24T03:00:10;100615.56;;;3.12;100.00
48077;BME280;33854;57.708;12.008;2022-11-24T03:02:36;100601.06;;;3.07;100.00
48077;BME280;33854;57.708;12.008;2022-11-24T03:05:01;100568.66;;;2.91;100.00
48077;BME280;33854;57.708;12.008;2022-11-24T03:07:27;100572.81;;;2.99;100.00
48077;BME280;33854;57.708;12.008;2022-11-24T03:09:52;100615.28;;;3.27;100.00
48077;BME280;33854;57.708;12.008;2022-11-24T03:12:18;100617.78;;;3.30;100.00
48077;BME280;33854;57.708;12.008;2022-11-24T03:14:43;100611.72;;;3.34;100.00
48077;BME280;33854;57.708;12.008;2022-11-24T03:17:08;100567.50;;;3.08;100.00
48077;BME280;33854;57.708;12.008;2022-11-24T03:19:34;100615.06;;;3.39;100.00
48077;BME280;33854;57.708;12.008;2022-11-24T03:21:59;100564.75;;;3.17;100.00
48077;BME280;33854;57.708;12.008;2022-11-24T03:24:25;100578.47;;;3.19;100.00
48077;BME280;33854;57.708;12.008;2022-11-24T03:26:50;100603.75;;;3.47;100.00
48077;BME280;33854;57.708;12.008;2022-11-24T03:29:16;100593.44;;;3.47;100.00
48077;BME280;33854;57.708;12.008;2022-11-24T03:31:41;100590.78;;;3.50;100.00
48077;BME280;33854;57.708;12.008;2022-11-24T03:34:07;100593.31;;;3.51;100.00
48077;BME280;33854;57.708;12.008;2022-11-24T03:36:32;100541.38;;;3.25;100.00
48077;BME280;33854;57.708;12.008;2022-11-24T03:38:58;100577.84;;;3.53;100.00
48077;BME280;33854;57.708;12.008;2022-11-24T03:41:23;100586.34;;;3.56;100.00
48077;BME280;33854;57.708;12.008;2022-11-24T03:43:48;100563.28;;;3.49;100.00
48077;BME280;33854;57.708;12.008;2022-11-24T03:46:14;100576.94;;;3.54;100.00
48077;BME280;33854;57.708;12.008;2022-11-24T03:48:39;100571.72;;;3.57;100.00
48077;BME280;33854;57.708;12.008;2022-11-24T03:51:05;100568.25;;;3.58;100.00
48077;BME280;33854;57.708;12.008;2022-11-24T03:53:31;100567.41;;;3.59;100.00
48077;BME280;33854;57.708;12.008;2022-11-24T03:55:58;100557.91;;;3.59;100.00
48077;BME280;33854;57.708;12.008;2022-11-24T03:58:24;100564.78;;;3.60;100.00
48077;BME280;33854;57.708;12.008;2022-11-24T04:00:51;100550.16;;;3.61;100.00
48077;BME280;33854;57.708;12.008;2022-11-24T04:03:16;100560.41;;;3.64;100.00
48077;BME280;33854;57.708;12.008;2022-11-24T04:05:42;100554.34;;;3.65;100.00
48077;BME280;33854;57.708;12.008;2022-11-24T04:08:07;100551.75;;;3.66;100.00
48077;BME280;33854;57.708;12.008;2022-11-24T04:10:35;100498.00;;;3.45;100.00
48077;BME280;33854;57.708;12.008;2022-11-24T04:13:03;100537.13;;;3.67;100.00
48077;BME280;33854;57.708;12.008;2022-11-24T04:15:28;100526.81;;;3.65;100.00
48077;BME280;33854;57.708;12.008;2022-11-24T04:17:54;100530.22;;;3.67;100.00
48077;BME280;33854;57.708;12.008;2022-11-24T04:20:21;100543.13;;;3.67;100.00
48077;BME280;33854;57.708;12.008;2022-11-24T04:22:48;100536.25;;;3.66;100.00
48077;BME280;33854;57.708;12.008;2022-11-24T04:25:14;100537.13;;;3.65;100.00
48077;BME280;33854;57.708;12.008;2022-11-24T04:27:41;100486.88;;;3.41;100.00
48077;BME280;33854;57.708;12.008;2022-11-24T04:30:08;100531.97;;;3.67;100.00
48077;BME280;33854;57.708;12.008;2022-11-24T04:32:33;100517.44;;;3.61;100.00
48077;BME280;33854;57.708;12.008;2022-11-24T04:34:59;100488.59;;;3.42;100.00
48077;BME280;33854;57.708;12.008;2022-11-24T04:37:24;100509.72;;;3.61;100.00
48077;BME280;33854;57.708;12.008;2022-11-24T04:39:50;100529.38;;;3.65;100.00
48077;BME280;33854;57.708;12.008;2022-11-24T04:42:15;100540.56;;;3.66;100.00
48077;BME280;33854;57.708;12.008;2022-11-24T04:44:40;100492.25;;;3.32;100.00
48077;BME280;33854;57.708;12.008;2022-11-24T04:47:06;100538.06;;;3.63;100.00
48077;BME280;33854;57.708;12.008;2022-11-24T04:49:31;100499.81;;;3.40;100.00
48077;BME280;33854;57.708;12.008;2022-11-24T04:51:57;100545.72;;;3.66;100.00
48077;BME280;33854;57.708;12.008;2022-11-24T04:54:23;100538.84;;;3.66;100.00
48077;BME280;33854;57.708;12.008;2022-11-24T04:56:50;100541.50;;;3.62;100.00
48077;BME280;33854;57.708;12.008;2022-11-24T04:59:16;100554.28;;;3.68;100.00
48077;BME280;33854;57.708;12.008;2022-11-24T05:01:43;100505.03;;;3.38;100.00
48077;BME280;33854;57.708;12.008;2022-11-24T05:04:10;100545.66;;;3.69;100.00
48077;BME280;33854;57.708;12.008;2022-11-24T05:06:36;100517.84;;;3.41;100.00
48077;BME280;33854;57.708;12.008;2022-11-24T05:09:02;100546.53;;;3.68;100.00
48077;BME280;33854;57.708;12.008;2022-11-24T05:11:27;100530.34;;;3.61;100.00
48077;BME280;33854;57.708;12.008;2022-11-24T05:13:53;100549.06;;;3.71;100.00
48077;BME280;33854;57.708;12.008;2022-11-24T05:16:18;100513.28;;;3.56;100.00
48077;BME280;33854;57.708;12.008;2022-11-24T05:18:44;100545.59;;;3.72;100.00
48077;BME280;33854;57.708;12.008;2022-11-24T05:21:09;100518.38;;;3.57;100.00
48077;BME280;33854;57.708;12.008;2022-11-24T05:23:35;100542.09;;;3.76;100.00
48077;BME280;33854;57.708;12.008;2022-11-24T05:26:01;100551.50;;;3.77;100.00
48077;BME280;33854;57.708;12.008;2022-11-24T05:28:27;100554.06;;;3.78;100.00
48077;BME280;33854;57.708;12.008;2022-11-24T05:30:52;100567.81;;;3.79;100.00
48077;BME280;33854;57.708;12.008;2022-11-24T05:33:18;100573.81;;;3.79;100.00
48077;BME280;33854;57.708;12.008;2022-11-24T05:35:47;100529.56;;;3.58;100.00
48077;BME280;33854;57.708;12.008;2022-11-24T05:38:14;100566.94;;;3.80;100.00
48077;BME280;33854;57.708;12.008;2022-11-24T05:40:40;100575.53;;;3.80;100.00
48077;BME280;33854;57.708;12.008;2022-11-24T05:43:15;100575.53;;;3.80;100.00
48077;BME280;33854;57.708;12.008;2022-11-24T05:45:41;100584.06;;;3.84;100.00
48077;BME280;33854;57.708;12.008;2022-11-24T05:48:09;100532.16;;;3.58;100.00
48077;BME280;33854;57.708;12.008;2022-11-24T05:50:35;100535.53;;;3.61;100.00
48077;BME280;33854;57.708;12.008;2022-11-24T05:53:11;100526.19;;;3.56;100.00
48077;BME280;33854;57.708;12.008;2022-11-24T05:55:38;100578.91;;;3.84;100.00
48077;BME280;33854;57.708;12.008;2022-11-24T05:58:06;100532.16;;;3.58;100.00
48077;BME280;33854;57.708;12.008;2022-11-24T06:00:33;100578.88;;;3.85;100.00
48077;BME280;33854;57.708;12.008;2022-11-24T06:02:59;100571.09;;;3.87;100.00
48077;BME280;33854;57.708;12.008;2022-11-24T06:05:26;100571.97;;;3.87;100.00
48077;BME280;33854;57.708;12.008;2022-11-24T06:07:53;100570.25;;;3.86;100.00
48077;BME280;33854;57.708;12.008;2022-11-24T06:10:20;100567.56;;;3.91;100.00
48077;BME280;33854;57.708;12.008;2022-11-24T06:12:46;100561.53;;;3.92;100.00
48077;BME280;33854;57.708;12.008;2022-11-24T06:15:12;100560.72;;;3.90;100.00
48077;BME280;33854;57.708;12.008;2022-11-24T06:17:38;100562.47;;;3.88;100.00
48077;BME280;33854;57.708;12.008;2022-11-24T06:20:05;100566.69;;;3.90;100.00
48077;BME280;33854;57.708;12.008;2022-11-24T06:22:31;100570.13;;;3.91;100.00
48077;BME280;33854;57.708;12.008;2022-11-24T06:24:57;100535.22;;;3.73;100.00
48077;BME280;33854;57.708;12.008;2022-11-24T06:27:23;100538.72;;;3.72;100.00
48077;BME280;33854;57.708;12.008;2022-11-24T06:29:48;100521.72;;;3.62;100.00
48077;BME280;33854;57.708;12.008;2022-11-24T06:32:14;100526.84;;;3.64;100.00
48077;BME280;33854;57.708;12.008;2022-11-24T06:34:39;100565.09;;;3.85;100.00
48077;BME280;33854;57.708;12.008;2022-11-24T06:37:05;100523.41;;;3.63;100.00
48077;BME280;33854;57.708;12.008;2022-11-24T06:39:30;100562.59;;;3.82;100.00
48077;BME280;33854;57.708;12.008;2022-11-24T06:41:56;100572.03;;;3.84;100.00
48077;BME280;33854;57.708;12.008;2022-11-24T06:44:21;100575.41;;;3.86;100.00
48077;BME280;33854;57.708;12.008;2022-11-24T06:46:47;100578.88;;;3.85;100.00
48077;BME280;33854;57.708;12.008;2022-11-24T06:49:12;100589.19;;;3.85;100.00
48077;BME280;33854;57.708;12.008;2022-11-24T06:51:38;100558.69;;;3.63;100.00
48077;BME280;33854;57.708;12.008;2022-11-24T06:54:13;100596.97;;;3.84;100.00
48077;BME280;33854;57.708;12.008;2022-11-24T06:56:39;100603.00;;;3.84;100.00
48077;BME280;33854;57.708;12.008;2022-11-24T06:59:04;100622.69;;;3.90;100.00
48077;BME280;33854;57.708;12.008;2022-11-24T07:01:30;100626.13;;;3.89;100.00
48077;BME280;33854;57.708;12.008;2022-11-24T07:03:56;100629.63;;;3.86;100.00
48077;BME280;33854;57.708;12.008;2022-11-24T07:06:23;100650.28;;;3.85;100.00
48077;BME280;33854;57.708;12.008;2022-11-24T07:08:49;100618.91;;;3.62;100.00
48077;BME280;33854;57.708;12.008;2022-11-24T07:11:23;100628.31;;;3.67;100.00
48077;BME280;33854;57.708;12.008;2022-11-24T07:13:49;100656.31;;;3.85;100.00
48077;BME280;33854;57.708;12.008;2022-11-24T07:16:20;100660.66;;;3.83;100.00
48077;BME280;33854;57.708;12.008;2022-11-24T07:18:47;100670.06;;;3.86;100.00
48077;BME280;33854;57.708;12.008;2022-11-24T07:21:13;100673.56;;;3.83;100.00
48077;BME280;33854;57.708;12.008;2022-11-24T07:23:39;100683.91;;;3.82;100.00
48077;BME280;33854;57.708;12.008;2022-11-24T07:26:05;100686.44;;;3.85;100.00
48077;BME280;33854;57.708;12.008;2022-11-24T07:28:32;100688.13;;;3.87;100.00
48077;BME280;33854;57.708;12.008;2022-11-24T07:30:58;100663.53;;;3.70;100.00
48077;BME280;33854;57.708;12.008;2022-11-24T07:33:24;100668.72;;;3.67;100.00
48077;BME280;33854;57.708;12.008;2022-11-24T07:35:53;100710.44;;;3.90;100.00
48077;BME280;33854;57.708;12.008;2022-11-24T07:38:19;100713.84;;;3.92;100.00
48077;BME280;33854;57.708;12.008;2022-11-24T07:40:44;100720.78;;;3.90;100.00
48077;BME280;33854;57.708;12.008;2022-11-24T07:43:10;100687.72;;;3.64;100.00
48077;BME280;33854;57.708;12.008;2022-11-24T07:45:36;100699.72;;;3.67;100.00
48077;BME280;33854;57.708;12.008;2022-11-24T07:48:01;100750.97;;;3.86;100.00
48077;BME280;33854;57.708;12.008;2022-11-24T07:50:27;100765.69;;;3.80;100.00
48077;BME280;33854;57.708;12.008;2022-11-24T07:52:52;100776.03;;;3.80;100.00
48077;BME280;33854;57.708;12.008;2022-11-24T07:55:17;100789.78;;;3.79;100.00
48077;BME280;33854;57.708;12.008;2022-11-24T07:57:43;100800.16;;;3.77;100.00
48077;BME280;33854;57.708;12.008;2022-11-24T08:00:08;100812.16;;;3.80;100.00
48077;BME280;33854;57.708;12.008;2022-11-24T08:02:34;100809.53;;;3.84;100.00
48077;BME280;33854;57.708;12.008;2022-11-24T08:05:00;100819.03;;;3.81;100.00
48077;BME280;33854;57.708;12.008;2022-11-24T08:07:25;100836.16;;;3.85;100.00
48077;BME280;33854;57.708;12.008;2022-11-24T08:09:50;100839.59;;;3.87;100.00
48077;BME280;33854;57.708;12.008;2022-11-24T08:12:17;100830.13;;;3.87;100.00
48077;BME280;33854;57.708;12.008;2022-11-24T08:14:48;100836.97;;;3.90;100.00
48077;BME280;33854;57.708;12.008;2022-11-24T08:17:17;100837.72;;;3.95;100.00
48077;BME280;33854;57.708;12.008;2022-11-24T08:19:43;100836.00;;;3.94;100.00
48077;BME280;33854;57.708;12.008;2022-11-24T08:22:08;100845.41;;;3.98;100.00
48077;BME280;33854;57.708;12.008;2022-11-24T08:24:34;100835.84;;;4.03;100.00
48077;BME280;33854;57.708;12.008;2022-11-24T08:26:59;100839.19;;;4.08;100.00
48077;BME280;33854;57.708;12.008;2022-11-24T08:29:29;100839.19;;;4.08;100.00
48077;BME280;33854;57.708;12.008;2022-11-24T08:31:55;100832.28;;;4.10;100.00
48077;BME280;33854;57.708;12.008;2022-11-24T08:34:22;100822.69;;;4.17;100.00
48077;BME280;33854;57.708;12.008;2022-11-24T08:36:48;100807.13;;;4.21;100.00
48077;BME280;33854;57.708;12.008;2022-11-24T08:39:13;100793.13;;;4.31;100.00
48077;BME280;33854;57.708;12.008;2022-11-24T08:41:38;100791.19;;;4.42;100.00
48077;BME280;33854;57.708;12.008;2022-11-24T08:44:04;100781.63;;;4.47;100.00
48077;BME280;33854;57.708;12.008;2022-11-24T08:46:29;100782.44;;;4.49;100.00
48077;BME280;33854;57.708;12.008;2022-11-24T08:48:54;100769.59;;;4.46;100.00
48077;BME280;33854;57.708;12.008;2022-11-24T08:51:25;100704.66;;;4.22;100.00
48077;BME280;33854;57.708;12.008;2022-11-24T08:53:59;100731.69;;;4.45;100.00
48077;BME280;33854;57.708;12.008;2022-11-24T08:56:26;100715.38;;;4.43;100.00
48077;BME280;33854;57.708;12.008;2022-11-24T08:58:52;100697.34;;;4.42;100.00
48077;BME280;33854;57.708;12.008;2022-11-24T09:01:18;100683.38;;;4.49;100.00
48077;BME280;33854;57.708;12.008;2022-11-24T09:03:46;100662.81;;;4.44;100.00
48077;BME280;33854;57.708;12.008;2022-11-24T09:06:12;100653.31;;;4.45;100.00
48077;BME280;33854;57.708;12.008;2022-11-24T09:08:38;100626.78;;;4.38;100.00
48077;BME280;33854;57.708;12.008;2022-11-24T09:11:06;100630.91;;;4.47;100.00
48077;BME280;33854;57.708;12.008;2022-11-24T09:13:32;100590.75;;;4.31;100.00
48077;BME280;33854;57.708;12.008;2022-11-24T09:16:02;100596.66;;;4.37;100.00
48077;BME280;33854;57.708;12.008;2022-11-24T09:18:28;100617.66;;;4.60;100.00
48077;BME280;33854;57.708;12.008;2022-11-24T09:20:53;100598.69;;;4.60;100.00
48077;BME280;33854;57.708;12.008;2022-11-24T09:23:22;100601.28;;;4.60;100.00
48077;BME280;33854;57.708;12.008;2022-11-24T09:25:47;100587.47;;;4.61;100.00
48077;BME280;33854;57.708;12.008;2022-11-24T09:28:13;100590.94;;;4.60;100.00
48077;BME280;33854;57.708;12.008;2022-11-24T09:30:38;100581.59;;;4.56;100.00
48077;BME280;33854;57.708;12.008;2022-11-24T09:33:04;100577.25;;;4.56;100.00
48077;BME280;33854;57.708;12.008;2022-11-24T09:35:29;100583.25;;;4.57;100.00
48077;BME280;33854;57.708;12.008;2022-11-24T09:37:55;100582.31;;;4.61;100.00
48077;BME280;33854;57.708;12.008;2022-11-24T09:40:21;100578.81;;;4.64;100.00
48077;BME280;33854;57.708;12.008;2022-11-24T09:42:59;100583.91;;;4.65;100.00
48077;BME280;33854;57.708;12.008;2022-11-24T09:45:42;100570.19;;;4.63;100.00
48077;BME280;33854;57.708;12.008;2022-11-24T09:48:21;100578.81;;;4.62;100.00
48077;BME280;33854;57.708;12.008;2022-11-24T09:50:51;100583.25;;;4.58;100.00
48077;BME280;33854;57.708;12.008;2022-11-24T09:55:49;100580.50;;;4.65;100.00
48077;BME280;33854;57.708;12.008;2022-11-24T09:58:23;100578.81;;;4.64;100.00
48077;BME280;33854;57.708;12.008;2022-11-24T10:00:54;100575.41;;;4.62;100.00
48077;BME280;33854;57.708;12.008;2022-11-24T10:03:48;100548.22;;;4.45;100.00
48077;BME280;33854;57.708;12.008;2022-11-24T10:11:59;100523.44;;;4.38;100.00
48077;BME280;33854;57.708;12.008;2022-11-24T10:25:06;100546.72;;;4.71;100.00
48077;BME280;33854;57.708;12.008;2022-11-24T10:27:36;100540.59;;;4.75;100.00
48077;BME280;33854;57.708;12.008;2022-11-24T10:30:15;100535.28;;;4.81;100.00
48077;BME280;33854;57.708;12.008;2022-11-24T10:32:45;100522.28;;;4.84;100.00
48077;BME280;33854;57.708;12.008;2022-11-24T10:35:19;100524.94;;;4.81;100.00
48077;BME280;33854;57.708;12.008;2022-11-24T10:38:01;100509.31;;;4.85;100.00
48077;BME280;33854;57.708;12.008;2022-11-24T10:40:38;100509.31;;;4.85;100.00
48077;BME280;33854;57.708;12.008;2022-11-24T10:43:09;100508.47;;;4.85;100.00
48077;BME280;33854;57.708;12.008;2022-11-24T10:45:36;100498.00;;;4.89;100.00
48077;BME280;33854;57.708;12.008;2022-11-24T10:48:06;100486.66;;;4.95;100.00
48077;BME280;33854;57.708;12.008;2022-11-24T10:50:37;100470.25;;;4.96;100.00
48077;BME280;33854;57.708;12.008;2022-11-24T10:58:40;100456.06;;;5.09;100.00
48077;BME280;33854;57.708;12.008;2022-11-24T11:06:13;100397.13;;;5.20;100.00
48077;BME280;33854;57.708;12.008;2022-11-24T11:08:39;100382.50;;;5.19;100.00
48077;BME280;33854;57.708;12.008;2022-11-24T11:11:27;100373.81;;;5.22;100.00
48077;BME280;33854;57.708;12.008;2022-11-24T11:14:06;100368.53;;;5.25;100.00
48077;BME280;33854;57.708;12.008;2022-11-24T11:16:43;100337.00;;;5.12;100.00
48077;BME280;33854;57.708;12.008;2022-11-24T11:19:40;100352.09;;;5.26;100.00
48077;BME280;33854;57.708;12.008;2022-11-24T11:24:39;100317.25;;;5.09;100.00
48077;BME280;33854;57.708;12.008;2022-11-24T11:27:18;100334.75;;;5.29;100.00
48077;BME280;33854;57.708;12.008;2022-11-24T11:29:44;100337.50;;;5.25;100.00
48077;BME280;33854;57.708;12.008;2022-11-24T11:32:21;100335.00;;;5.22;100.00
48077;BME280;33854;57.708;12.008;2022-11-24T11:34:49;100341.66;;;5.29;100.00
48077;BME280;33854;57.708;12.008;2022-11-24T11:37:16;100303.44;;;5.10;100.00
48077;BME280;33854;57.708;12.008;2022-11-24T11:39:47;100342.41;;;5.32;100.00
48077;BME280;33854;57.708;12.008;2022-11-24T11:50:33;100323.13;;;5.14;100.00
48077;BME280;33854;57.708;12.008;2022-11-24T12:12:40;100389.44;;;5.17;100.00
48077;BME280;33854;57.708;12.008;2022-11-24T12:15:39;100392.03;;;5.17;100.00
48077;BME280;33854;57.708;12.008;2022-11-24T12:24:52;100387.34;;;5.30;100.00
48077;BME280;33854;57.708;12.008;2022-11-24T12:32:48;100396.41;;;5.44;100.00
48077;BME280;33854;57.708;12.008;2022-11-24T12:38:40;100387.34;;;5.57;100.00
48077;BME280;33854;57.708;12.008;2022-11-24T12:43:59;100377.72;;;5.62;100.00
48077;BME280;33854;57.708;12.008;2022-11-24T12:49:36;100365.56;;;5.64;100.00
48077;BME280;33854;57.708;12.008;2022-11-24T12:52:30;100322.41;;;5.37;100.00
48077;BME280;33854;57.708;12.008;2022-11-24T12:54:55;100370.97;;;5.57;100.00
48077;BME280;33854;57.708;12.008;2022-11-24T12:57:41;100358.00;;;5.58;100.00
48077;BME280;33854;57.708;12.008;2022-11-24T13:05:54;100312.56;;;5.22;100.00
48077;BME280;33854;57.708;12.008;2022-11-24T13:08:23;100362.75;;;5.44;100.00
48077;BME280;33854;57.708;12.008;2022-11-24T13:10:49;100366.91;;;5.48;100.00
48077;BME280;33854;57.708;12.008;2022-11-24T13:13:15;100336.56;;;5.27;100.00
48077;BME280;33854;57.708;12.008;2022-11-24T13:18:43;100370.53;;;5.44;100.00
48077;BME280;33854;57.708;12.008;2022-11-24T13:21:30;100379.25;;;5.40;100.00
48077;BME280;33854;57.708;12.008;2022-11-24T13:42:20;100386.47;;;5.58;100.00
48077;BME280;33854;57.708;12.008;2022-11-24T13:44:50;100380.41;;;5.59;100.00
48077;BME280;33854;57.708;12.008;2022-11-24T13:47:32;100381.84;;;5.68;100.00
48077;BME280;33854;57.708;12.008;2022-11-24T13:49:58;100379.50;;;5.60;100.00
48077;BME280;33854;57.708;12.008;2022-11-24T13:54:59;100395.88;;;5.61;100.00
48077;BME280;33854;57.708;12.008;2022-11-24T14:02:53;100391.69;;;5.57;100.00
48077;BME280;33854;57.708;12.008;2022-11-24T14:05:22;100391.91;;;5.51;100.00
48077;BME280;33854;57.708;12.008;2022-11-24T14:07:51;100391.13;;;5.47;100.00
48077;BME280;33854;57.708;12.008;2022-11-24T14:10:21;100399.69;;;5.49;100.00
48077;BME280;33854;57.708;12.008;2022-11-24T14:13:14;100405.84;;;5.45;100.00
48077;BME280;33854;57.708;12.008;2022-11-24T14:15:40;100369.41;;;5.25;100.00
48077;BME280;33854;57.708;12.008;2022-11-24T14:18:15;100372.94;;;5.21;100.00
48077;BME280;33854;57.708;12.008;2022-11-24T14:20:41;100413.81;;;5.39;100.00
48077;BME280;33854;57.708;12.008;2022-11-24T14:23:08;100393.81;;;5.15;100.00
48077;BME280;33854;57.708;12.008;2022-11-24T14:25:34;100429.63;;;5.29;100.00
48077;BME280;33854;57.708;12.008;2022-11-24T14:28:00;100411.13;;;5.13;100.00
48077;BME280;33854;57.708;12.008;2022-11-24T14:30:25;100412.25;;;5.04;100.00
48077;BME280;33854;57.708;12.008;2022-11-24T14:35:26;100470.38;;;5.22;100.00
48077;BME280;33854;57.708;12.008;2022-11-24T14:37:52;100484.13;;;5.24;100.00
48077;BME280;33854;57.708;12.008;2022-11-24T14:43:13;100492.88;;;5.18;100.00
48077;BME280;33854;57.708;12.008;2022-11-24T14:45:47;100497.28;;;5.15;100.00
48077;BME280;33854;57.708;12.008;2022-11-24T14:48:17;100509.34;;;5.16;100.00
48077;BME280;33854;57.708;12.008;2022-11-24T14:50:44;100518.00;;;5.15;100.00
48077;BME280;33854;57.708;12.008;2022-11-24T14:53:14;100519.81;;;5.11;100.00